Time;durP1;ratioP1;P1;durP2;ratioP2;P2;SDS_P1;SDS_P2;PMS_P1;PMS_P2;Temp;Humidity;BMP_temperature;BMP_pressure;BME280_temperature;BME280_humidity;BME280_pressure;Samples;Min_cycle;Max_cycle;Signal;HPM_P1;HPM_P2
2023/10/29 00:00:55;;;;;;;27.63;6.13;;;16.20;99.90;;;;;;5073860;28;20027;-60
2023/10/29 00:03:20;;;;;;;25.65;5.70;;;16.20;99.90;;;;;;5091963;28;20047;-61
2023/10/29 00:05:46;;;;;;;25.05;6.10;;;16.20;99.90;;;;;;5091795;28;20448;-61
2023/10/29 00:08:12;;;;;;;26.92;6.40;;;16.10;99.90;;;;;;5091675;28;20594;-61
2023/10/29 00:10:37;;;;;;;24.08;5.93;;;16.10;99.90;;;;;;5091405;28;20055;-61
2023/10/29 00:13:04;;;;;;;23.88;5.78;;;16.00;99.90;;;;;;5092041;28;20032;-61
2023/10/29 00:15:30;;;;;;;18.60;4.80;;;16.00;99.90;;;;;;5091707;28;20028;-61
2023/10/29 00:17:56;;;;;;;19.48;4.82;;;16.00;99.90;;;;;;5091759;28;20028;-63
2023/10/29 00:20:21;;;;;;;15.02;4.35;;;15.90;99.90;;;;;;5091483;28;20028;-61
2023/10/29 00:22:47;;;;;;;15.25;4.25;;;15.90;99.90;;;;;;5091547;28;20482;-61
2023/10/29 00:25:13;;;;;;;15.32;3.67;;;15.90;99.90;;;;;;5082160;28;20490;-61
2023/10/29 00:27:38;;;;;;;16.80;3.72;;;15.80;99.90;;;;;;5111992;28;20040;-61
2023/10/29 00:30:05;;;;;;;15.98;4.00;;;15.70;99.90;;;;;;5112140;28;20177;-61
2023/10/29 00:32:31;;;;;;;17.73;4.20;;;15.70;99.90;;;;;;5111764;28;20023;-61
2023/10/29 00:34:57;;;;;;;15.55;3.53;;;15.60;99.90;;;;;;5111739;28;20408;-61
2023/10/29 00:37:24;;;;;;;14.38;3.67;;;15.60;99.90;;;;;;5112021;28;20059;-61
2023/10/29 00:39:49;;;;;;;15.52;3.60;;;15.60;99.90;;;;;;5111244;28;20501;-61
2023/10/29 00:42:15;;;;;;;16.50;3.88;;;15.50;99.90;;;;;;5111545;28;20035;-61
2023/10/29 00:44:41;;;;;;;14.50;3.78;;;15.50;99.90;;;;;;5110964;28;20024;-62
2023/10/29 00:47:07;;;;;;;16.10;3.70;;;15.50;99.90;;;;;;5112048;28;20027;-62
2023/10/29 00:49:34;;;;;;;16.50;4.07;;;15.50;99.90;;;;;;5111527;28;20100;-61
2023/10/29 00:51:59;;;;;;;15.25;3.65;;;15.50;99.90;;;;;;5111412;28;20055;-61
2023/10/29 00:54:25;;;;;;;13.80;3.90;;;15.60;99.90;;;;;;5096449;28;20479;-61
2023/10/29 00:56:53;;;;;;;13.18;3.47;;;15.80;99.90;;;;;;5091489;28;20024;-61
2023/10/29 00:59:20;;;;;;;13.27;3.92;;;15.90;99.90;;;;;;5091091;28;20069;-61
2023/10/29 01:01:46;;;;;;;13.02;3.90;;;15.90;99.90;;;;;;5090834;28;20040;-61
2023/10/29 01:04:12;;;;;;;14.85;4.15;;;16.00;99.90;;;;;;5090890;28;20032;-61
2023/10/29 01:06:40;;;;;;;13.70;3.83;;;15.90;99.90;;;;;;5091343;28;20522;-62
2023/10/29 01:09:07;;;;;;;13.82;3.63;;;15.90;99.90;;;;;;5090499;28;20038;-61
2023/10/29 01:11:33;;;;;;;17.95;4.32;;;16.00;99.90;;;;;;5090942;28;20027;-62
2023/10/29 01:14:00;;;;;;;14.13;3.92;;;15.90;99.90;;;;;;5090999;28;20020;-61
2023/10/29 01:16:27;;;;;;;17.08;3.53;;;15.90;99.90;;;;;;5072447;28;20063;-61
2023/10/29 01:18:55;;;;;;;16.08;4.22;;;15.90;99.90;;;;;;5091114;28;20490;-61
2023/10/29 01:21:21;;;;;;;13.20;3.95;;;15.80;99.90;;;;;;5090313;28;20037;-61
2023/10/29 01:23:46;;;;;;;11.32;3.33;;;15.80;99.90;;;;;;5090589;28;20037;-61
2023/10/29 01:26:12;;;;;;;13.75;3.70;;;15.80;99.90;;;;;;5108238;28;20024;-61
2023/10/29 01:28:38;;;;;;;17.38;3.80;;;15.70;99.90;;;;;;5111129;28;20519;-61
2023/10/29 01:31:05;;;;;;;14.35;3.80;;;15.50;99.90;;;;;;5111550;28;20059;-61
2023/10/29 01:33:30;;;;;;;15.25;3.88;;;15.40;99.90;;;;;;5111048;28;20027;-61
2023/10/29 01:35:56;;;;;;;13.93;4.03;;;15.30;99.90;;;;;;5111348;28;20035;-61
2023/10/29 01:38:22;;;;;;;15.82;4.13;;;15.20;99.90;;;;;;5110377;28;20478;-61
2023/10/29 01:40:48;;;;;;;17.88;4.40;;;15.20;99.90;;;;;;5110989;28;20123;-61
2023/10/29 01:43:14;;;;;;;15.88;4.20;;;15.20;99.90;;;;;;5111420;28;20505;-61
2023/10/29 01:45:39;;;;;;;14.88;4.22;;;15.20;99.90;;;;;;5110960;28;20055;-61
2023/10/29 01:48:05;;;;;;;14.15;4.70;;;15.10;99.90;;;;;;5110979;28;20019;-61
2023/10/29 01:50:31;;;;;;;17.63;4.13;;;15.10;99.90;;;;;;5110921;28;20028;-62
2023/10/29 01:52:57;;;;;;;17.08;4.10;;;15.00;99.90;;;;;;5108523;28;20019;-61
2023/10/29 01:55:23;;;;;;;13.73;4.15;;;15.10;99.90;;;;;;5090564;28;20063;-61
2023/10/29 01:57:49;;;;;;;14.65;4.10;;;15.10;99.90;;;;;;5094218;28;20486;-61
2023/10/29 02:00:15;;;;;;;15.45;4.20;;;15.00;99.90;;;;;;5094072;28;20024;-61
2023/10/29 02:02:40;;;;;;;13.85;4.05;;;15.00;99.90;;;;;;5094178;28;20077;-62
2023/10/29 02:05:07;;;;;;;18.15;4.40;;;15.00;99.90;;;;;;5093894;28;20028;-62
2023/10/29 02:07:32;;;;;;;15.35;4.07;;;14.90;99.90;;;;;;5094204;28;20095;-61
2023/10/29 02:09:58;;;;;;;14.52;4.13;;;14.90;99.90;;;;;;5093487;28;20022;-61
2023/10/29 02:12:23;;;;;;;17.08;4.35;;;14.90;99.90;;;;;;5094343;28;20024;-61
2023/10/29 02:14:49;;;;;;;13.18;3.80;;;14.90;99.90;;;;;;5093785;28;20095;-61
2023/10/29 02:17:15;;;;;;;14.40;4.03;;;14.90;99.90;;;;;;5094007;28;20028;-61
2023/10/29 02:19:40;;;;;;;15.80;4.28;;;14.90;99.90;;;;;;5094027;28;20039;-61
2023/10/29 02:22:06;;;;;;;14.02;4.45;;;14.90;99.90;;;;;;5093400;28;20541;-61
2023/10/29 02:24:32;;;;;;;15.63;4.63;;;14.90;99.90;;;;;;5097235;28;20465;-61
2023/10/29 02:26:57;;;;;;;13.32;4.18;;;14.90;99.90;;;;;;5114432;28;20444;-61
2023/10/29 02:29:23;;;;;;;14.10;4.20;;;14.80;99.90;;;;;;5113913;28;20039;-62
2023/10/29 02:31:49;;;;;;;15.57;4.20;;;14.80;99.90;;;;;;5113847;28;20039;-61
2023/10/29 02:34:14;;;;;;;13.23;4.10;;;15.00;99.90;;;;;;5114359;28;20028;-61
2023/10/29 02:36:40;;;;;;;14.48;3.72;;;15.20;99.90;;;;;;5095323;28;20110;-61
2023/10/29 02:39:06;;;;;;;12.57;3.70;;;15.30;99.90;;;;;;5113802;28;20034;-61
2023/10/29 02:41:32;;;;;;;14.55;4.00;;;15.40;99.90;;;;;;5113709;28;20036;-62
2023/10/29 02:43:58;;;;;;;13.82;3.58;;;15.50;99.90;;;;;;5113914;28;20039;-61
2023/10/29 02:46:24;;;;;;;10.50;3.80;;;15.50;99.90;;;;;;5113653;28;20153;-61
2023/10/29 02:48:50;;;;;;;13.32;3.60;;;15.50;99.90;;;;;;5113959;28;20024;-61
2023/10/29 02:51:16;;;;;;;11.48;3.83;;;15.50;99.90;;;;;;5113392;28;20030;-62
2023/10/29 02:53:42;;;;;;;13.18;4.00;;;15.50;99.90;;;;;;5105188;28;20466;-61
2023/10/29 02:56:08;;;;;;;11.98;3.85;;;15.60;99.90;;;;;;5093356;28;20113;-61
2023/10/29 02:58:35;;;;;;;11.70;3.65;;;15.50;99.90;;;;;;5093077;28;20039;-61
2023/10/29 03:01:08;;;;;;;11.48;3.30;;;15.50;99.90;;;;;;5092816;28;20028;-60
2023/10/29 03:03:35;;;;;;;12.43;3.63;;;15.50;99.90;;;;;;5092863;28;20067;-61
2023/10/29 03:06:08;;;;;;;13.32;3.75;;;15.50;99.90;;;;;;5093081;28;20020;-61
2023/10/29 03:08:35;;;;;;;11.77;3.55;;;15.40;99.90;;;;;;5092514;28;20089;-61
2023/10/29 03:11:01;;;;;;;12.45;4.00;;;15.30;99.90;;;;;;5092768;28;20032;-61
2023/10/29 03:13:27;;;;;;;12.18;3.50;;;15.10;99.90;;;;;;5092768;28;20482;-61
2023/10/29 03:15:53;;;;;;;9.52;3.25;;;15.10;99.90;;;;;;5092722;28;20027;-62
2023/10/29 03:18:20;;;;;;;12.82;3.42;;;15.00;99.90;;;;;;5092591;28;20043;-62
2023/10/29 03:20:46;;;;;;;9.70;3.15;;;15.00;99.90;;;;;;5092663;28;20024;-62
2023/10/29 03:23:11;;;;;;;9.90;3.25;;;15.00;99.90;;;;;;5093014;28;20039;-61
2023/10/29 03:25:37;;;;;;;13.70;3.92;;;14.90;99.90;;;;;;5105164;28;20019;-61
2023/10/29 03:28:03;;;;;;;10.65;3.40;;;14.90;99.90;;;;;;5112857;28;20028;-61
2023/10/29 03:30:28;;;;;;;12.32;4.15;;;14.80;99.90;;;;;;5112705;28;20024;-61
2023/10/29 03:32:54;;;;;;;12.85;3.78;;;14.80;99.90;;;;;;5112917;28;20032;-61
2023/10/29 03:35:20;;;;;;;11.45;4.22;;;14.80;99.90;;;;;;5094678;28;20024;-61
2023/10/29 03:37:45;;;;;;;15.18;4.30;;;14.80;99.90;;;;;;5112781;28;20072;-62
2023/10/29 03:40:11;;;;;;;13.30;3.95;;;14.80;99.90;;;;;;5112742;28;20028;-62
2023/10/29 03:42:37;;;;;;;13.00;4.13;;;14.80;99.90;;;;;;5094313;28;20059;-62
2023/10/29 03:45:05;;;;;;;10.95;3.83;;;14.80;99.90;;;;;;5094287;28;20059;-61
2023/10/29 03:47:31;;;;;;;12.45;4.20;;;14.80;99.90;;;;;;5112386;28;20103;-61
2023/10/29 03:49:57;;;;;;;12.82;4.00;;;14.80;99.90;;;;;;5112614;28;20091;-61
2023/10/29 03:52:22;;;;;;;12.55;4.53;;;14.80;99.90;;;;;;5112631;28;20023;-61
2023/10/29 03:54:48;;;;;;;13.68;4.13;;;14.80;99.90;;;;;;5094834;28;20468;-62
2023/10/29 03:57:14;;;;;;;12.38;4.10;;;14.70;99.90;;;;;;5092033;28;20390;-61
2023/10/29 03:59:40;;;;;;;13.60;4.63;;;14.70;99.90;;;;;;5091938;28;20023;-61
2023/10/29 04:02:06;;;;;;;13.15;4.22;;;14.70;99.90;;;;;;5091997;28;20109;-62
2023/10/29 04:04:32;;;;;;;15.95;5.18;;;14.70;99.90;;;;;;5091750;28;20035;-61
2023/10/29 04:06:59;;;;;;;13.02;5.03;;;14.70;99.90;;;;;;5091857;28;20342;-61
2023/10/29 04:09:24;;;;;;;14.48;4.80;;;14.70;99.90;;;;;;5092117;28;20024;-62
2023/10/29 04:11:50;;;;;;;13.88;5.00;;;14.70;99.90;;;;;;5091711;28;20020;-61
2023/10/29 04:14:15;;;;;;;12.30;4.82;;;14.70;99.90;;;;;;5091510;28;20023;-61
2023/10/29 04:16:41;;;;;;;13.57;4.60;;;14.90;99.90;;;;;;5091355;28;20069;-61
2023/10/29 04:19:07;;;;;;;14.25;5.10;;;15.10;99.90;;;;;;5091601;28;20084;-61
2023/10/29 04:21:32;;;;;;;12.40;4.50;;;15.20;99.90;;;;;;5091908;28;20036;-61
2023/10/29 04:23:58;;;;;;;11.15;3.92;;;15.40;99.90;;;;;;5091655;28;20032;-61
2023/10/29 04:26:23;;;;;;;11.57;4.10;;;15.40;99.90;;;;;;5092300;28;20035;-61
2023/10/29 04:28:49;;;;;;;12.70;4.13;;;15.40;99.90;;;;;;5111715;28;20048;-61
2023/10/29 04:31:15;;;;;;;12.77;4.10;;;15.50;99.90;;;;;;5111565;28;20016;-61
2023/10/29 04:33:40;;;;;;;12.52;4.07;;;15.50;99.90;;;;;;5111842;28;20114;-61
2023/10/29 04:36:06;;;;;;;10.93;3.95;;;15.50;99.90;;;;;;5112342;28;20023;-61
2023/10/29 04:38:35;;;;;;;13.20;4.05;;;15.50;99.90;;;;;;5111686;28;20074;-61
2023/10/29 04:41:01;;;;;;;12.15;4.22;;;15.50;99.90;;;;;;5111316;28;20086;-61
2023/10/29 04:43:27;;;;;;;11.75;3.80;;;15.50;99.90;;;;;;5111563;28;20035;-61
2023/10/29 04:45:52;;;;;;;10.55;3.85;;;15.50;99.90;;;;;;5111300;28;20023;-61
2023/10/29 04:48:18;;;;;;;12.57;4.38;;;15.50;99.90;;;;;;5111953;28;20410;-61
2023/10/29 04:50:44;;;;;;;11.60;4.10;;;15.40;99.90;;;;;;5111605;28;20080;-61
2023/10/29 04:53:09;;;;;;;13.75;3.92;;;15.20;99.90;;;;;;5107523;28;20081;-61
2023/10/29 04:55:35;;;;;;;12.23;3.72;;;15.10;99.90;;;;;;5091750;28;20026;-61
2023/10/29 04:58:00;;;;;;;11.85;3.78;;;15.00;99.90;;;;;;5091280;28;20028;-61
2023/10/29 05:00:26;;;;;;;12.25;4.03;;;14.90;99.90;;;;;;5090692;28;20556;-61
2023/10/29 05:02:52;;;;;;;11.45;3.70;;;14.80;99.90;;;;;;5091020;28;20062;-62
2023/10/29 05:05:17;;;;;;;10.23;3.72;;;14.80;99.90;;;;;;5091219;28;20024;-61
2023/10/29 05:07:45;;;;;;;11.98;4.10;;;14.80;99.90;;;;;;5090947;28;20085;-61
2023/10/29 05:10:13;;;;;;;9.40;3.67;;;14.70;99.90;;;;;;5090949;28;20028;-61
2023/10/29 05:12:39;;;;;;;11.55;3.78;;;14.70;99.90;;;;;;5091237;28;20036;-61
2023/10/29 05:15:05;;;;;;;10.55;3.33;;;14.70;99.90;;;;;;5090711;28;20115;-61
2023/10/29 05:17:31;;;;;;;9.20;3.53;;;14.70;99.90;;;;;;5090929;28;20565;-61
2023/10/29 05:19:57;;;;;;;14.13;3.45;;;14.70;99.90;;;;;;5091286;28;20115;-62
2023/10/29 05:22:22;;;;;;;12.77;3.55;;;14.60;99.90;;;;;;5090625;28;20085;-61
2023/10/29 05:24:48;;;;;;;10.25;3.50;;;14.60;99.90;;;;;;5096764;28;20023;-61
2023/10/29 05:27:14;;;;;;;12.18;3.40;;;14.60;99.90;;;;;;5111502;28;20039;-62
2023/10/29 05:29:39;;;;;;;11.95;3.60;;;14.60;99.90;;;;;;5110564;28;20065;-61
2023/10/29 05:32:05;;;;;;;9.75;3.13;;;14.50;99.90;;;;;;5114042;28;20478;-61
2023/10/29 05:34:31;;;;;;;12.32;4.05;;;14.50;99.90;;;;;;5115348;28;20028;-61
2023/10/29 05:36:57;;;;;;;10.25;3.80;;;14.50;99.90;;;;;;5115105;28;20084;-61
2023/10/29 05:39:22;;;;;;;9.63;3.42;;;14.50;99.90;;;;;;5115215;28;20440;-61
2023/10/29 05:41:48;;;;;;;10.57;3.95;;;14.50;99.90;;;;;;5115269;28;20035;-61
2023/10/29 05:44:14;;;;;;;9.40;3.28;;;14.50;99.90;;;;;;5114592;28;20076;-61
2023/10/29 05:46:39;;;;;;;11.32;3.60;;;14.50;99.90;;;;;;5114994;28;20032;-62
2023/10/29 05:49:05;;;;;;;11.45;3.30;;;14.50;99.90;;;;;;5115257;28;20028;-62
2023/10/29 05:51:31;;;;;;;10.75;3.40;;;14.50;99.90;;;;;;5114749;28;20027;-61
2023/10/29 05:53:56;;;;;;;11.13;3.53;;;14.50;99.90;;;;;;5104054;28;20099;-61
2023/10/29 05:56:23;;;;;;;10.90;3.50;;;14.50;99.90;;;;;;5094048;28;20027;-61
2023/10/29 05:58:48;;;;;;;13.30;3.80;;;14.40;99.90;;;;;;5094079;28;20043;-61
2023/10/29 06:01:14;;;;;;;9.73;3.50;;;14.60;99.90;;;;;;5094509;28;20036;-61
2023/10/29 06:03:40;;;;;;;10.32;3.40;;;14.70;99.90;;;;;;5094128;28;20027;-61
2023/10/29 06:06:06;;;;;;;11.43;3.60;;;14.90;99.90;;;;;;5094266;28;20016;-61
2023/10/29 06:08:31;;;;;;;11.02;3.85;;;15.10;99.90;;;;;;5094047;28;20500;-62
2023/10/29 06:10:57;;;;;;;10.07;3.42;;;15.10;99.90;;;;;;5094410;28;20016;-61
2023/10/29 06:13:23;;;;;;;8.88;3.20;;;15.30;99.90;;;;;;5093333;28;20055;-62
2023/10/29 06:15:48;;;;;;;10.50;3.05;;;15.30;99.90;;;;;;5093960;28;20442;-62
2023/10/29 06:18:16;;;;;;;10.35;3.30;;;15.20;99.90;;;;;;5093861;28;20402;-61
2023/10/29 06:20:42;;;;;;;8.75;3.10;;;15.20;99.90;;;;;;5094302;28;20073;-62
2023/10/29 06:23:08;;;;;;;10.00;3.30;;;15.30;99.90;;;;;;5093623;28;20066;-61
2023/10/29 06:25:34;;;;;;;9.93;3.67;;;15.30;99.90;;;;;;5105765;28;20503;-60
2023/10/29 06:28:00;;;;;;;7.35;3.13;;;15.30;99.90;;;;;;5113922;28;20112;-62
2023/10/29 06:30:26;;;;;;;9.77;3.40;;;15.20;99.90;;;;;;5114023;28;20054;-61
2023/10/29 06:32:51;;;;;;;7.40;3.90;;;15.30;99.90;;;;;;5114065;28;20103;-61
2023/10/29 06:35:17;;;;;;;10.20;3.75;;;15.20;99.90;;;;;;5114056;28;20016;-61
2023/10/29 06:37:43;;;;;;;7.70;3.03;;;15.10;99.90;;;;;;5113894;28;20070;-61
2023/10/29 06:40:09;;;;;;;11.80;4.00;;;15.00;99.90;;;;;;5113505;28;20482;-62
2023/10/29 06:42:35;;;;;;;10.75;3.22;;;14.90;99.90;;;;;;5112832;28;20039;-61
2023/10/29 06:45:02;;;;;;;11.27;3.85;;;14.80;99.90;;;;;;5113586;28;20019;-61
2023/10/29 06:47:27;;;;;;;10.23;4.10;;;14.70;99.90;;;;;;5114158;28;20104;-61
2023/10/29 06:49:55;;;;;;;10.80;3.90;;;14.70;99.90;;;;;;5113742;28;20490;-61
2023/10/29 06:52:21;;;;;;;9.80;3.60;;;14.60;99.90;;;;;;5113805;28;20429;-61
2023/10/29 06:54:47;;;;;;;12.15;3.60;;;14.60;99.90;;;;;;5095781;28;20099;-61
2023/10/29 06:57:13;;;;;;;8.75;3.50;;;14.60;99.90;;;;;;5093020;28;20042;-61
2023/10/29 06:59:39;;;;;;;8.82;3.55;;;14.50;99.90;;;;;;5093571;28;20020;-61
2023/10/29 07:02:06;;;;;;;10.02;3.78;;;14.60;99.90;;;;;;5092997;28;20380;-62
2023/10/29 07:04:32;;;;;;;12.60;4.57;;;14.50;99.90;;;;;;5092686;28;20062;-62
2023/10/29 07:06:57;;;;;;;9.43;3.83;;;14.50;99.90;;;;;;5093354;28;20020;-61
2023/10/29 07:09:23;;;;;;;10.68;3.67;;;14.50;99.90;;;;;;5092767;28;20047;-62
2023/10/29 07:11:49;;;;;;;11.18;4.15;;;14.50;99.90;;;;;;5074250;28;20482;-61
2023/10/29 07:14:15;;;;;;;12.10;4.75;;;14.50;99.90;;;;;;5092957;28;20108;-61
2023/10/29 07:16:44;;;;;;;9.02;3.78;;;14.50;99.90;;;;;;5092812;28;20454;-61
2023/10/29 07:19:13;;;;;;;11.18;4.00;;;14.50;99.90;;;;;;5092513;28;20077;-61
2023/10/29 07:21:40;;;;;;;8.80;3.70;;;14.50;99.90;;;;;;5092472;28;20407;-61
2023/10/29 07:24:06;;;;;;;9.77;3.85;;;14.50;99.90;;;;;;5092523;28;20034;-61
2023/10/29 07:26:33;;;;;;;8.25;3.70;;;14.40;99.90;;;;;;5112486;28;20065;-62
2023/10/29 07:28:59;;;;;;;5.97;2.30;;;14.50;99.90;;;;;;5112790;28;20473;-62
2023/10/29 07:31:25;;;;;;;5.45;2.30;;;14.50;99.90;;;;;;5112955;28;20111;-62
2023/10/29 07:33:52;;;;;;;6.05;2.28;;;14.50;99.90;;;;;;5112972;28;20114;-62
2023/10/29 07:36:19;;;;;;;5.72;2.00;;;14.50;99.90;;;;;;5113059;28;20031;-62
2023/10/29 07:38:44;;;;;;;4.72;2.13;;;14.50;99.90;;;;;;5094448;28;20031;-61
2023/10/29 07:41:10;;;;;;;6.70;2.15;;;14.50;99.90;;;;;;5112212;28;20023;-62
2023/10/29 07:43:36;;;;;;;4.88;2.17;;;14.50;99.90;;;;;;5112704;28;20019;-62
2023/10/29 07:46:03;;;;;;;5.15;1.90;;;14.70;99.90;;;;;;5112716;28;20387;-61
2023/10/29 07:48:28;;;;;;;4.38;1.85;;;14.90;99.90;;;;;;5112534;28;20031;-61
2023/10/29 07:50:54;;;;;;;4.47;1.80;;;15.00;99.90;;;;;;5112359;28;20031;-62
2023/10/29 07:53:20;;;;;;;4.32;1.83;;;15.10;99.90;;;;;;5112248;28;20038;-61
2023/10/29 07:55:46;;;;;;;4.63;1.55;;;15.10;99.90;;;;;;5112405;28;20023;-62
2023/10/29 07:58:11;;;;;;;8.30;1.95;;;15.20;99.90;;;;;;5112365;28;20051;-61
2023/10/29 08:00:37;;;;;;;6.13;1.95;;;15.30;99.90;;;;;;5112223;28;20418;-62
2023/10/29 08:03:03;;;;;;;7.22;1.83;;;15.30;99.90;;;;;;5112530;28;20031;-63
2023/10/29 08:05:29;;;;;;;7.95;1.90;;;15.40;99.90;;;;;;5112175;28;20035;-62
2023/10/29 08:07:55;;;;;;;7.00;1.95;;;15.40;99.90;;;;;;5112069;28;20035;-62
2023/10/29 08:10:21;;;;;;;5.13;1.80;;;15.40;99.90;;;;;;5112005;28;20047;-62
2023/10/29 08:12:47;;;;;;;5.45;1.85;;;15.50;99.90;;;;;;5112406;28;20111;-62
2023/10/29 08:15:13;;;;;;;8.48;2.28;;;15.40;99.90;;;;;;5112156;28;20098;-62
2023/10/29 08:17:39;;;;;;;8.73;2.13;;;15.40;99.90;;;;;;5111999;28;20044;-62
2023/10/29 08:20:06;;;;;;;7.05;2.05;;;15.20;99.90;;;;;;5111954;28;20103;-62
2023/10/29 08:22:32;;;;;;;8.38;2.45;;;15.10;99.90;;;;;;5111446;28;20031;-62
2023/10/29 08:24:59;;;;;;;6.65;2.30;;;14.90;99.90;;;;;;5111795;28;20023;-62
2023/10/29 08:27:25;;;;;;;8.00;2.72;;;14.80;99.90;;;;;;5111730;28;20039;-62
2023/10/29 08:29:50;;;;;;;6.32;2.13;;;14.80;99.90;;;;;;5111648;28;20043;-62
2023/10/29 08:32:17;;;;;;;6.90;2.55;;;14.70;99.90;;;;;;5111719;28;20026;-62
2023/10/29 08:34:43;;;;;;;6.07;1.92;;;14.70;99.90;;;;;;5111818;28;20016;-62
2023/10/29 08:37:10;;;;;;;10.13;2.38;;;14.70;99.90;;;;;;5111506;28;20446;-62
2023/10/29 08:39:36;;;;;;;7.35;1.90;;;14.70;99.90;;;;;;5111515;28;20028;-62
2023/10/29 08:42:02;;;;;;;9.68;2.20;;;14.60;99.90;;;;;;5111651;28;20040;-62
2023/10/29 08:44:28;;;;;;;8.02;2.50;;;14.60;99.90;;;;;;5111690;28;20015;-62
2023/10/29 08:46:54;;;;;;;9.60;2.75;;;14.60;99.90;;;;;;5111581;28;20037;-62
2023/10/29 08:49:20;;;;;;;7.55;2.03;;;14.60;99.90;;;;;;5111603;28;20095;-62
2023/10/29 08:51:46;;;;;;;7.63;2.05;;;14.60;99.90;;;;;;5111444;28;20482;-61
2023/10/29 08:54:12;;;;;;;8.05;2.30;;;14.60;99.90;;;;;;5098964;28;20028;-62
2023/10/29 08:56:37;;;;;;;8.27;2.30;;;14.70;99.90;;;;;;5091251;28;20024;-62
2023/10/29 08:59:04;;;;;;;7.53;2.67;;;14.70;99.90;;;;;;5091092;28;20552;-61
2023/10/29 09:01:30;;;;;;;11.77;2.53;;;14.70;99.90;;;;;;5091113;28;20040;-61
2023/10/29 09:03:56;;;;;;;8.55;2.50;;;14.80;99.90;;;;;;5091088;28;20077;-62
2023/10/29 09:06:23;;;;;;;10.80;2.60;;;14.80;99.90;;;;;;5092784;28;20028;-62
2023/10/29 09:08:49;;;;;;;8.48;2.60;;;14.80;99.90;;;;;;5095253;28;20499;-61
2023/10/29 09:11:15;;;;;;;9.20;3.13;;;14.80;99.90;;;;;;5094979;28;20036;-61
2023/10/29 09:13:41;;;;;;;9.57;3.15;;;14.80;99.90;;;;;;5077425;28;20514;-61
2023/10/29 09:16:07;;;;;;;10.88;2.85;;;14.80;99.90;;;;;;5095164;28;20024;-61
2023/10/29 09:18:32;;;;;;;12.38;3.47;;;14.70;99.90;;;;;;5094921;28;20034;-61
2023/10/29 09:20:58;;;;;;;8.52;3.30;;;14.80;99.90;;;;;;5094767;28;20096;-62
2023/10/29 09:23:24;;;;;;;12.07;3.53;;;14.80;99.90;;;;;;5095063;28;20409;-62
2023/10/29 09:25:50;;;;;;;9.68;3.10;;;14.80;99.90;;;;;;5109293;28;20014;-60
2023/10/29 09:28:16;;;;;;;10.05;3.20;;;14.90;99.90;;;;;;5115049;28;20039;-62
2023/10/29 09:30:42;;;;;;;8.65;2.60;;;15.10;99.90;;;;;;5115668;28;20053;-62
2023/10/29 09:33:11;;;;;;;7.65;2.50;;;15.20;99.90;;;;;;5115128;28;20027;-62
2023/10/29 09:35:37;;;;;;;9.93;2.72;;;15.30;99.90;;;;;;5114831;28;20028;-63
2023/10/29 09:38:03;;;;;;;9.18;2.50;;;15.40;99.90;;;;;;5115119;28;20474;-62
2023/10/29 09:40:29;;;;;;;9.68;2.65;;;15.50;99.90;;;;;;5114735;28;20032;-62
2023/10/29 09:42:59;;;;;;;10.00;2.90;;;15.50;99.90;;;;;;5115339;28;20032;-62
2023/10/29 09:45:26;;;;;;;7.18;2.60;;;15.60;99.90;;;;;;5114717;28;20115;-62
2023/10/29 09:47:52;;;;;;;7.65;2.72;;;15.60;99.90;;;;;;5114782;28;20281;-62
2023/10/29 09:50:19;;;;;;;9.80;3.42;;;15.60;99.90;;;;;;5114496;28;20024;-63
2023/10/29 09:52:52;;;;;;;9.90;2.85;;;15.60;99.90;;;;;;5114682;28;20106;-62
2023/10/29 09:55:21;;;;;;;8.35;2.75;;;15.60;99.90;;;;;;5094407;28;20028;-62
2023/10/29 09:57:48;;;;;;;10.38;2.95;;;15.60;99.90;;;;;;5094259;28;20410;-62
2023/10/29 10:00:17;;;;;;;9.45;2.75;;;15.60;99.90;;;;;;5094264;28;20028;-62
2023/10/29 10:02:50;;;;;;;10.18;2.97;;;15.50;99.90;;;;;;5094023;28;20043;-62
2023/10/29 10:05:20;;;;;;;8.53;2.60;;;15.50;99.90;;;;;;5093849;28;20020;-62
2023/10/29 10:07:46;;;;;;;9.23;2.60;;;15.40;99.90;;;;;;5094517;28;20442;-62
2023/10/29 10:10:13;;;;;;;8.60;2.90;;;15.30;99.90;;;;;;5093962;28;20166;-62
2023/10/29 10:12:49;;;;;;;9.85;2.92;;;15.30;99.90;;;;;;5094152;28;20052;-62
2023/10/29 10:15:16;;;;;;;11.60;3.40;;;15.30;99.90;;;;;;5093873;28;20060;-61
2023/10/29 10:17:57;;;;;;;11.55;3.63;;;15.30;99.90;;;;;;5093665;28;20048;-62
2023/10/29 10:20:23;;;;;;;9.32;3.08;;;15.20;99.90;;;;;;5093592;28;20052;-62
2023/10/29 10:23:07;;;;;;;10.20;3.78;;;15.20;99.90;;;;;;5093776;28;20067;-62
2023/10/29 10:25:34;;;;;;;9.93;3.28;;;15.20;99.90;;;;;;5105786;28;20453;-62
2023/10/29 10:28:02;;;;;;;10.43;3.40;;;15.20;99.90;;;;;;5114392;28;20098;-62
2023/10/29 10:30:33;;;;;;;7.97;3.30;;;15.20;99.90;;;;;;5114061;28;20053;-62
2023/10/29 10:33:20;;;;;;;9.57;3.50;;;15.20;99.90;;;;;;5113347;28;20034;-61
2023/10/29 10:35:52;;;;;;;12.20;4.80;;;15.20;99.90;;;;;;5114015;28;20020;-62
2023/10/29 10:38:22;;;;;;;12.20;3.65;;;15.20;99.90;;;;;;5114002;28;20445;-62
2023/10/29 10:41:01;;;;;;;15.75;5.40;;;15.20;99.90;;;;;;5113870;28;20490;-62
2023/10/29 10:43:28;;;;;;;11.48;4.15;;;15.20;99.90;;;;;;5113982;28;20039;-62
2023/10/29 10:45:56;;;;;;;18.92;9.27;;;15.20;99.90;;;;;;5113650;28;20027;-61
2023/10/29 10:48:22;;;;;;;24.40;13.75;;;15.20;99.90;;;;;;5113518;28;20031;-62
2023/10/29 10:50:53;;;;;;;17.80;10.45;;;15.20;99.90;;;;;;5113792;28;20394;-62
2023/10/29 10:53:19;;;;;;;16.45;8.35;;;15.20;99.90;;;;;;5108769;28;20546;-62
2023/10/29 10:55:46;;;;;;;15.73;7.90;;;15.20;99.90;;;;;;5093342;28;20020;-62
2023/10/29 10:58:13;;;;;;;12.35;4.68;;;15.20;99.90;;;;;;5093382;28;20036;-62
2023/10/29 11:00:38;;;;;;;10.98;4.07;;;15.20;99.90;;;;;;5093280;28;20393;-62
2023/10/29 11:03:05;;;;;;;11.20;3.90;;;15.20;99.90;;;;;;5092858;28;20047;-62
2023/10/29 11:05:33;;;;;;;10.05;3.30;;;15.20;99.90;;;;;;5093273;28;20020;-63
2023/10/29 11:07:59;;;;;;;10.38;3.92;;;15.30;99.90;;;;;;5093355;28;20418;-62
2023/10/29 11:10:26;;;;;;;9.70;3.45;;;15.50;99.90;;;;;;5092937;28;20161;-62
2023/10/29 11:12:52;;;;;;;11.02;3.00;;;15.60;99.90;;;;;;5092977;28;20063;-62
2023/10/29 11:15:20;;;;;;;10.05;3.58;;;15.80;99.90;;;;;;5092907;28;20379;-63
2023/10/29 11:17:58;;;;;;;10.27;3.45;;;15.80;99.90;;;;;;5092485;28;20031;-62
2023/10/29 11:20:39;;;;;;;11.60;3.10;;;16.00;99.90;;;;;;5092704;28;20031;-62
2023/10/29 11:23:13;;;;;;;12.63;4.10;;;16.10;99.90;;;;;;5092603;28;20035;-62
2023/10/29 11:25:40;;;;;;;8.95;3.20;;;16.20;99.90;;;;;;5105289;28;20035;-61
2023/10/29 11:28:31;;;;;;;11.05;3.40;;;16.20;99.90;;;;;;5112534;28;20027;-62
2023/10/29 11:31:18;;;;;;;14.68;3.92;;;16.30;99.90;;;;;;5098500;28;20028;-62
2023/10/29 11:33:45;;;;;;;12.85;4.00;;;16.20;99.90;;;;;;5112982;28;20035;-62
2023/10/29 11:36:35;;;;;;;11.80;4.20;;;16.20;99.90;;;;;;5112822;28;20027;-62
2023/10/29 11:39:16;;;;;;;13.63;5.80;;;16.20;99.90;;;;;;5112818;28;20491;-62
2023/10/29 11:41:49;;;;;;;13.38;6.25;;;16.40;99.90;;;;;;5112705;28;20504;-62
2023/10/29 11:44:17;;;;;;;12.13;5.53;;;16.30;99.90;;;;;;5112601;28;20019;-62
2023/10/29 11:46:58;;;;;;;12.38;5.03;;;16.10;99.90;;;;;;5112776;28;20027;-62
2023/10/29 11:49:28;;;;;;;9.70;4.35;;;16.10;99.90;;;;;;5112555;28;20535;-62
2023/10/29 11:52:01;;;;;;;11.57;5.35;;;16.00;99.90;;;;;;5112382;28;20047;-62
2023/10/29 11:54:28;;;;;;;12.82;5.20;;;16.00;99.90;;;;;;5112618;28;20024;-62
2023/10/29 11:56:57;;;;;;;13.35;4.93;;;16.00;99.90;;;;;;5112450;28;20080;-62
2023/10/29 11:59:23;;;;;;;14.07;4.45;;;16.00;99.90;;;;;;5112414;28;20110;-62
2023/10/29 12:01:49;;;;;;;13.80;5.00;;;16.00;99.90;;;;;;5112074;28;20131;-62
2023/10/29 12:04:14;;;;;;;11.98;4.70;;;16.10;99.90;;;;;;5112750;28;20045;-62
2023/10/29 12:06:42;;;;;;;11.50;5.18;;;16.20;99.90;;;;;;5112148;28;20082;-62
2023/10/29 12:09:22;;;;;;;15.07;5.07;;;16.20;99.90;;;;;;5112057;28;20038;-62
2023/10/29 12:11:52;;;;;;;12.70;5.95;;;16.20;99.90;;;;;;5112515;28;20031;-62
2023/10/29 12:14:35;;;;;;;14.35;5.30;;;16.20;99.90;;;;;;5112127;28;20019;-62
2023/10/29 12:17:01;;;;;;;12.88;4.30;;;16.10;99.90;;;;;;5111789;28;20032;-61
2023/10/29 12:19:37;;;;;;;14.20;4.00;;;16.10;99.90;;;;;;5112512;28;20077;-62
2023/10/29 12:22:12;;;;;;;16.27;4.93;;;16.00;99.90;;;;;;5111788;28;20031;-63
2023/10/29 12:24:38;;;;;;;16.10;4.25;;;15.90;99.90;;;;;;5112284;28;20027;-63
2023/10/29 12:27:05;;;;;;;11.63;4.10;;;15.90;99.90;;;;;;5111697;28;20084;-63
2023/10/29 12:29:30;;;;;;;13.70;3.83;;;15.90;99.90;;;;;;5111335;28;20044;-64
2023/10/29 12:31:56;;;;;;;15.23;4.60;;;16.00;99.90;;;;;;5111975;28;20546;-64
2023/10/29 12:34:22;;;;;;;16.77;4.85;;;16.00;99.90;;;;;;5111749;28;20375;-63
2023/10/29 12:36:51;;;;;;;17.67;4.68;;;16.00;99.90;;;;;;5111868;28;20023;-64
2023/10/29 12:39:17;;;;;;;15.52;4.97;;;16.00;99.90;;;;;;5111538;28;20482;-64